Time;durP1;ratioP1;P1;durP2;ratioP2;P2;SDS_P1;SDS_P2;PMS_P1;PMS_P2;Temp;Humidity;BMP_temperature;BMP_pressure;BME280_temperature;BME280_humidity;BME280_pressure;Samples;Min_cycle;Max_cycle;Signal;HPM_P1;HPM_P2
2021/04/28 00:01:33;;;;;;;8.45;3.42;;;10.70;55.50;;;;;;4980258;28;20105;-85
2021/04/28 00:03:58;;;;;;;10.32;3.60;;;10.70;55.40;;;;;;4979620;28;20057;-85
2021/04/28 00:06:24;;;;;;;9.20;3.92;;;10.70;55.90;;;;;;4998819;28;20557;-85
2021/04/28 00:08:50;;;;;;;7.57;3.53;;;10.70;55.60;;;;;;4979714;28;20022;-84
2021/04/28 00:11:16;;;;;;;8.43;4.15;;;10.60;55.50;;;;;;4978883;28;20034;-85
2021/04/28 00:13:41;;;;;;;8.32;3.95;;;10.60;55.70;;;;;;4975948;28;20091;-85
2021/04/28 00:16:07;;;;;;;9.40;4.07;;;10.60;56.10;;;;;;4994644;28;20022;-85
2021/04/28 00:18:33;;;;;;;9.27;4.22;;;10.60;56.10;;;;;;4984043;28;20022;-85
2021/04/28 00:20:59;;;;;;;7.88;4.00;;;10.50;56.10;;;;;;4979397;28;20026;-85
2021/04/28 00:23:24;;;;;;;7.00;4.15;;;10.50;56.40;;;;;;4977115;28;20038;-85
2021/04/28 00:25:50;;;;;;;7.03;3.83;;;10.50;56.40;;;;;;4985885;28;20058;-85
2021/04/28 00:28:16;;;;;;;8.10;4.05;;;10.40;56.40;;;;;;4985075;28;20026;-85
2021/04/28 00:30:42;;;;;;;8.23;3.70;;;10.40;56.60;;;;;;4986270;28;20062;-84
2021/04/28 00:33:08;;;;;;;8.98;4.30;;;10.40;56.80;;;;;;4979457;28;20030;-84
2021/04/28 00:35:33;;;;;;;7.50;4.05;;;10.30;56.80;;;;;;4979577;28;20036;-85
2021/04/28 00:37:59;;;;;;;8.07;4.32;;;10.30;56.90;;;;;;4997140;28;20041;-85
2021/04/28 00:40:29;;;;;;;7.53;4.05;;;10.40;57.40;;;;;;4979752;28;20053;-84
2021/04/28 00:42:56;;;;;;;8.20;4.72;;;10.30;57.70;;;;;;5003764;28;20176;-84
2021/04/28 00:45:24;;;;;;;9.55;3.78;;;10.30;57.60;;;;;;4986031;28;20030;-84
2021/04/28 00:47:50;;;;;;;8.68;4.38;;;10.30;57.70;;;;;;4980232;28;20058;-85
2021/04/28 00:50:19;;;;;;;8.57;4.30;;;10.20;58.00;;;;;;4979789;28;20030;-85
2021/04/28 00:52:45;;;;;;;7.55;4.25;;;10.20;58.30;;;;;;4979249;28;20030;-85
2021/04/28 00:55:12;;;;;;;7.60;3.88;;;10.20;58.80;;;;;;4979617;28;20030;-85
2021/04/28 00:57:38;;;;;;;7.90;4.20;;;10.10;58.90;;;;;;4978641;28;20480;-85
2021/04/28 01:00:07;;;;;;;9.10;4.28;;;10.10;59.00;;;;;;4996552;28;20084;-85
2021/04/28 01:02:33;;;;;;;8.23;4.43;;;10.10;59.10;;;;;;4979055;28;20037;-85
2021/04/28 01:05:00;;;;;;;8.73;4.22;;;10.10;59.20;;;;;;4977519;28;20030;-85
2021/04/28 01:07:26;;;;;;;8.02;4.20;;;10.00;59.20;;;;;;4983529;28;20041;-84
2021/04/28 01:09:53;;;;;;;9.00;4.25;;;10.00;59.50;;;;;;4982083;28;20022;-85
2021/04/28 01:12:20;;;;;;;11.85;4.22;;;10.00;59.90;;;;;;4978192;28;20050;-85
2021/04/28 01:14:46;;;;;;;7.35;4.25;;;9.90;59.90;;;;;;4974905;28;20026;-85
2021/04/28 01:17:11;;;;;;;9.30;4.18;;;9.90;60.20;;;;;;5001605;28;20360;-84
2021/04/28 01:19:39;;;;;;;10.13;4.35;;;9.80;60.20;;;;;;4986227;28;20037;-85
2021/04/28 01:22:05;;;;;;;8.77;3.83;;;9.80;60.50;;;;;;4983264;28;20030;-85
2021/04/28 01:24:31;;;;;;;8.52;4.53;;;9.80;60.60;;;;;;4980004;28;20029;-85
2021/04/28 01:27:01;;;;;;;9.07;4.20;;;9.80;60.80;;;;;;4980077;28;20022;-85
2021/04/28 01:29:27;;;;;;;7.93;4.50;;;9.80;60.70;;;;;;4996708;28;20022;-85
2021/04/28 01:31:57;;;;;;;8.93;4.43;;;9.70;61.00;;;;;;4978806;28;20026;-85
2021/04/28 01:34:24;;;;;;;9.15;4.78;;;9.70;60.90;;;;;;4979111;28;20097;-85
2021/04/28 01:36:51;;;;;;;8.88;4.13;;;9.60;60.90;;;;;;4974743;28;20395;-85
2021/04/28 01:39:18;;;;;;;10.98;4.00;;;9.60;61.40;;;;;;5002046;23;20106;-83
2021/04/28 01:41:47;;;;;;;8.20;4.03;;;9.60;61.90;;;;;;5006789;28;20442;-84
2021/04/28 01:44:16;;;;;;;9.27;4.28;;;9.50;62.30;;;;;;5023334;28;20033;-83
2021/04/28 01:46:43;;;;;;;9.15;4.65;;;9.50;62.30;;;;;;5005067;28;20040;-85
2021/04/28 01:49:10;;;;;;;9.00;4.65;;;9.50;62.20;;;;;;5002064;28;20030;-85
2021/04/28 01:51:37;;;;;;;8.52;4.40;;;9.70;62.30;;;;;;5022920;28;20038;-84
2021/04/28 01:54:08;;;;;;;11.50;4.53;;;9.50;62.50;;;;;;5005626;28;20037;-85
2021/04/28 01:56:34;;;;;;;14.85;4.63;;;9.50;62.50;;;;;;5004941;28;20093;-84
2021/04/28 01:59:00;;;;;;;8.43;3.97;;;9.50;62.40;;;;;;5004517;28;20045;-83
2021/04/28 02:01:26;;;;;;;9.43;4.32;;;9.50;62.50;;;;;;5006459;28;20065;-85
2021/04/28 02:03:56;;;;;;;9.85;4.32;;;9.50;62.70;;;;;;5007913;28;20030;-84
2021/04/28 02:06:22;;;;;;;7.65;4.20;;;9.40;62.60;;;;;;5008342;28;20034;-84
2021/04/28 02:08:48;;;;;;;11.15;4.10;;;9.40;62.40;;;;;;5009002;28;20029;-84
2021/04/28 02:11:14;;;;;;;9.75;4.60;;;9.40;62.60;;;;;;5025604;28;20045;-85
2021/04/28 02:13:44;;;;;;;9.30;4.22;;;9.40;62.50;;;;;;5025542;28;20030;-85
2021/04/28 02:16:11;;;;;;;9.82;4.40;;;9.30;62.50;;;;;;5025686;28;20120;-83
2021/04/28 02:18:38;;;;;;;10.75;3.97;;;9.40;62.70;;;;;;5026931;28;20049;-83
2021/04/28 02:21:04;;;;;;;11.10;4.38;;;9.30;62.80;;;;;;5026285;28;20390;-84
2021/04/28 02:23:33;;;;;;;9.20;4.30;;;9.30;63.00;;;;;;5009181;28;20420;-83
2021/04/28 02:25:59;;;;;;;11.68;4.80;;;9.20;63.10;;;;;;5010786;28;20053;-84
2021/04/28 02:28:24;;;;;;;8.35;4.13;;;9.20;63.40;;;;;;5010130;28;20029;-84
2021/04/28 02:30:50;;;;;;;10.18;4.50;;;9.20;63.80;;;;;;5012187;28;20026;-84
2021/04/28 02:33:16;;;;;;;12.85;4.47;;;9.20;64.10;;;;;;5029417;28;20375;-84
2021/04/28 02:35:42;;;;;;;8.55;4.25;;;9.20;64.50;;;;;;5007757;28;20030;-83
2021/04/28 02:38:44;;;;;;;8.77;4.70;;;9.10;64.60;;;;;;5006150;28;20101;-82
2021/04/28 02:41:12;;;;;;;8.13;3.25;;;9.00;64.70;;;;;;4994575;28;20050;-83
2021/04/28 02:43:40;;;;;;;8.63;4.32;;;9.10;64.70;;;;;;5021858;28;20034;-83
2021/04/28 02:46:10;;;;;;;10.30;4.78;;;9.10;64.80;;;;;;5005330;28;20088;-84
2021/04/28 02:48:38;;;;;;;9.18;4.38;;;9.00;65.00;;;;;;5023740;28;20034;-83
2021/04/28 02:51:04;;;;;;;8.60;4.75;;;9.00;65.10;;;;;;5018583;28;20117;-84
2021/04/28 02:53:31;;;;;;;8.15;3.90;;;9.00;65.30;;;;;;5022070;28;20110;-83
2021/04/28 02:55:58;;;;;;;9.40;5.00;;;8.90;65.40;;;;;;5004393;28;20045;-83
2021/04/28 02:58:25;;;;;;;10.77;4.53;;;8.90;65.40;;;;;;5019836;28;20467;-84
2021/04/28 03:00:53;;;;;;;10.82;4.45;;;8.90;65.70;;;;;;5022850;28;20057;-83
2021/04/28 03:03:18;;;;;;;9.45;4.80;;;8.90;65.80;;;;;;5002942;28;20064;-85
2021/04/28 03:05:50;;;;;;;11.32;4.72;;;8.80;65.80;;;;;;5022225;28;20018;-83
2021/04/28 03:08:16;;;;;;;10.40;5.03;;;8.80;66.30;;;;;;5023568;28;20026;-84
2021/04/28 03:10:41;;;;;;;9.15;4.78;;;8.80;66.30;;;;;;5004522;28;20116;-84
2021/04/28 03:13:07;;;;;;;10.35;4.75;;;8.70;66.40;;;;;;5010926;28;20053;-83
2021/04/28 03:15:33;;;;;;;9.07;4.90;;;8.80;66.50;;;;;;5003953;28;20028;-84
2021/04/28 03:17:59;;;;;;;8.88;4.43;;;8.70;66.50;;;;;;5023425;28;20034;-82
2021/04/28 03:20:26;;;;;;;15.20;4.65;;;8.70;66.70;;;;;;5023330;28;20036;-83
2021/04/28 03:22:52;;;;;;;10.10;4.90;;;8.70;66.90;;;;;;5022447;28;20097;-84
2021/04/28 03:25:18;;;;;;;11.38;4.90;;;8.60;67.10;;;;;;5005695;28;20026;-83
2021/04/28 03:27:43;;;;;;;8.30;4.63;;;8.60;68.10;;;;;;5021661;28;20035;-82
2021/04/28 03:30:10;;;;;;;13.32;5.03;;;8.60;68.70;;;;;;5005164;28;20048;-83
2021/04/28 03:32:35;;;;;;;11.00;4.80;;;8.60;68.90;;;;;;5006242;28;20044;-83
2021/04/28 03:35:02;;;;;;;11.20;4.80;;;8.60;69.30;;;;;;5011323;28;20022;-84
2021/04/28 03:37:27;;;;;;;11.95;4.88;;;8.50;69.30;;;;;;5005606;28;20387;-82
2021/04/28 03:39:53;;;;;;;9.15;4.95;;;8.60;69.30;;;;;;5011460;28;20045;-83
2021/04/28 03:42:22;;;;;;;10.68;4.57;;;8.50;69.20;;;;;;5003258;28;20030;-83
2021/04/28 03:44:47;;;;;;;10.20;4.85;;;8.50;69.60;;;;;;5003862;28;20105;-82
2021/04/28 03:47:13;;;;;;;10.00;4.38;;;8.50;70.50;;;;;;5021757;28;20481;-84
2021/04/28 03:49:38;;;;;;;10.00;4.72;;;8.50;71.10;;;;;;5003277;28;20026;-83
2021/04/28 03:52:04;;;;;;;10.93;4.88;;;8.40;71.00;;;;;;5004340;28;20061;-83
2021/04/28 03:54:30;;;;;;;9.25;5.40;;;8.40;71.10;;;;;;5000956;28;20042;-83
2021/04/28 03:56:55;;;;;;;11.10;4.88;;;8.40;71.10;;;;;;5014017;28;20025;-82
2021/04/28 03:59:21;;;;;;;8.13;4.72;;;8.40;71.70;;;;;;5002906;28;20030;-83
2021/04/28 04:01:47;;;;;;;10.27;5.35;;;8.40;72.10;;;;;;5002535;28;20029;-84
2021/04/28 04:04:12;;;;;;;11.90;5.22;;;8.40;72.40;;;;;;5018270;28;20026;-83
2021/04/28 04:06:38;;;;;;;12.52;4.93;;;8.30;72.20;;;;;;5010372;28;20029;-83
2021/04/28 04:09:05;;;;;;;12.50;5.15;;;8.30;72.80;;;;;;5019650;28;20064;-83
2021/04/28 04:11:31;;;;;;;14.95;5.47;;;8.30;72.90;;;;;;5019047;28;20033;-83
2021/04/28 04:13:56;;;;;;;11.13;5.18;;;8.30;72.80;;;;;;5001319;28;20092;-83
2021/04/28 04:16:22;;;;;;;10.95;5.70;;;8.30;73.10;;;;;;5019739;28;20042;-83
2021/04/28 04:18:47;;;;;;;10.25;5.00;;;8.20;72.90;;;;;;5019176;28;20034;-84
2021/04/28 04:21:13;;;;;;;8.80;4.88;;;8.30;73.60;;;;;;5009970;28;20027;-84
2021/04/28 04:23:39;;;;;;;13.23;5.15;;;8.30;74.00;;;;;;4998107;28;20388;-84
2021/04/28 04:26:05;;;;;;;10.77;5.47;;;8.30;73.90;;;;;;5018421;28;20101;-83
2021/04/28 04:28:31;;;;;;;11.52;5.00;;;8.30;74.00;;;;;;5019765;28;20022;-83
2021/04/28 04:30:56;;;;;;;9.88;5.43;;;8.30;74.10;;;;;;4996542;28;20041;-83
2021/04/28 04:33:22;;;;;;;12.68;5.57;;;8.30;74.20;;;;;;5007137;28;20029;-82
2021/04/28 04:35:47;;;;;;;8.80;4.70;;;8.30;74.00;;;;;;5019281;28;20109;-84
2021/04/28 04:38:16;;;;;;;11.32;5.32;;;8.30;74.30;;;;;;5009981;28;20102;-85
2021/04/28 04:40:42;;;;;;;10.45;5.18;;;8.30;74.70;;;;;;5012642;28;20447;-84
2021/04/28 04:43:07;;;;;;;12.45;6.10;;;8.40;75.00;;;;;;5024096;28;20033;-83
2021/04/28 04:45:36;;;;;;;10.98;5.53;;;8.30;75.20;;;;;;5006896;28;20025;-83
2021/04/28 04:48:04;;;;;;;12.27;5.60;;;8.40;75.30;;;;;;5011712;28;20034;-84
2021/04/28 04:50:30;;;;;;;11.35;5.47;;;8.40;75.50;;;;;;5005299;28;20029;-84
2021/04/28 04:52:56;;;;;;;10.38;5.22;;;8.40;75.80;;;;;;5023118;28;20116;-83
2021/04/28 04:55:22;;;;;;;12.55;5.22;;;8.40;76.00;;;;;;5021984;28;20041;-83
2021/04/28 04:57:52;;;;;;;10.30;5.38;;;8.50;76.30;;;;;;5020994;28;20025;-84
2021/04/28 05:00:19;;;;;;;10.65;5.20;;;8.50;76.20;;;;;;5023553;28;20105;-84
2021/04/28 05:02:45;;;;;;;12.75;5.13;;;8.60;76.70;;;;;;5005682;28;20471;-85
2021/04/28 05:05:11;;;;;;;10.48;5.70;;;8.60;76.60;;;;;;5001364;28;20038;-85
2021/04/28 05:07:37;;;;;;;13.00;5.40;;;8.60;76.60;;;;;;5018764;28;20025;-83
2021/04/28 05:10:04;;;;;;;10.77;5.68;;;8.70;77.60;;;;;;5003149;28;20034;-84
2021/04/28 05:12:30;;;;;;;12.02;6.07;;;8.80;77.60;;;;;;5003757;28;20041;-83
2021/04/28 05:14:55;;;;;;;13.02;5.90;;;8.80;77.60;;;;;;5020741;28;20087;-84
2021/04/28 05:17:21;;;;;;;11.45;6.07;;;8.80;77.20;;;;;;5001958;28;20057;-84
2021/04/28 05:19:46;;;;;;;15.63;6.18;;;8.80;77.80;;;;;;5018793;28;20026;-85
2021/04/28 05:22:12;;;;;;;12.40;5.60;;;8.80;78.40;;;;;;5019570;28;20089;-83
2021/04/28 05:24:38;;;;;;;11.98;5.68;;;8.80;79.10;;;;;;5020736;28;20417;-83
2021/04/28 05:27:04;;;;;;;13.68;6.05;;;8.80;80.00;;;;;;5006996;28;20063;-84
2021/04/28 05:29:30;;;;;;;12.75;5.72;;;8.90;80.40;;;;;;5018200;28;20120;-83
2021/04/28 05:31:55;;;;;;;9.93;6.13;;;8.90;80.40;;;;;;5001728;28;20022;-83
2021/04/28 05:34:21;;;;;;;14.05;5.93;;;9.10;80.30;;;;;;5011713;28;20542;-83
2021/04/28 05:36:47;;;;;;;13.90;6.10;;;9.00;80.20;;;;;;5017286;28;20026;-83
2021/04/28 05:39:12;;;;;;;13.05;5.88;;;9.20;80.10;;;;;;5000611;28;20033;-84
2021/04/28 05:41:39;;;;;;;11.90;5.43;;;9.30;80.90;;;;;;4997955;28;20109;-83
2021/04/28 05:44:07;;;;;;;12.45;5.93;;;9.30;80.60;;;;;;4997329;28;20467;-82
2021/04/28 05:46:33;;;;;;;10.93;6.38;;;9.50;81.20;;;;;;5000387;28;20151;-83
2021/04/28 05:48:58;;;;;;;12.75;5.65;;;9.60;81.60;;;;;;5001883;28;20022;-85
2021/04/28 05:51:24;;;;;;;10.65;5.78;;;9.60;79.90;;;;;;5000522;28;20049;-83
2021/04/28 05:53:50;;;;;;;12.63;6.35;;;9.70;80.90;;;;;;5015362;28;20084;-85
2021/04/28 05:56:15;;;;;;;14.35;6.47;;;9.70;80.80;;;;;;5001127;28;21269;-84
2021/04/28 05:58:41;;;;;;;12.55;5.82;;;9.90;81.20;;;;;;5015494;28;20041;-84
2021/04/28 06:01:06;;;;;;;13.38;6.38;;;9.90;81.80;;;;;;4994673;28;20037;-83
2021/04/28 06:03:32;;;;;;;12.80;6.35;;;9.90;80.80;;;;;;5012860;28;20034;-83
2021/04/28 06:05:58;;;;;;;11.02;6.45;;;9.90;81.50;;;;;;4999620;28;20386;-84
2021/04/28 06:08:23;;;;;;;10.60;6.45;;;10.00;81.20;;;;;;4999322;28;20657;-83
2021/04/28 06:10:49;;;;;;;12.00;6.18;;;10.10;80.90;;;;;;5000982;28;20026;-83
2021/04/28 06:13:15;;;;;;;11.93;6.10;;;10.30;81.10;;;;;;5009993;28;20084;-83
2021/04/28 06:15:40;;;;;;;12.18;6.38;;;10.40;80.40;;;;;;4995162;28;20630;-84
2021/04/28 06:18:08;;;;;;;13.60;6.15;;;10.50;79.60;;;;;;4993879;28;20026;-84
2021/04/28 06:20:34;;;;;;;12.65;5.80;;;10.60;79.50;;;;;;4999943;28;20495;-84
2021/04/28 06:23:01;;;;;;;11.73;5.68;;;10.60;78.70;;;;;;4996878;28;20037;-83
2021/04/28 06:25:29;;;;;;;13.20;6.90;;;10.60;78.60;;;;;;4994658;28;20030;-83
2021/04/28 06:27:55;;;;;;;12.65;6.20;;;10.60;78.40;;;;;;4995636;28;20026;-83
2021/04/28 06:30:21;;;;;;;17.58;5.95;;;10.70;78.50;;;;;;4997405;28;20816;-84
2021/04/28 06:32:48;;;;;;;11.10;6.05;;;10.80;78.10;;;;;;5012801;28;20058;-84
2021/04/28 06:35:14;;;;;;;15.90;6.75;;;10.90;77.20;;;;;;5015043;28;20022;-83
2021/04/28 06:37:40;;;;;;;10.90;6.13;;;11.10;76.40;;;;;;4994833;28;20049;-85
2021/04/28 06:40:07;;;;;;;14.90;6.47;;;11.20;75.30;;;;;;4997045;28;20041;-85
2021/04/28 06:42:33;;;;;;;11.30;6.55;;;11.10;76.20;;;;;;4995283;28;20045;-85
2021/04/28 06:44:59;;;;;;;12.70;6.38;;;11.20;75.60;;;;;;4997158;28;20105;-84
2021/04/28 06:47:25;;;;;;;19.63;6.70;;;11.40;74.60;;;;;;5017499;28;20041;-84
2021/04/28 06:49:52;;;;;;;14.73;7.68;;;11.40;75.40;;;;;;5020831;28;20018;-84
2021/04/28 06:52:17;;;;;;;13.35;6.80;;;11.50;73.80;;;;;;5002670;28;20061;-86
2021/04/28 06:54:43;;;;;;;12.88;6.88;;;11.60;74.30;;;;;;5020425;28;20042;-85
2021/04/28 06:57:09;;;;;;;13.90;6.65;;;11.80;73.40;;;;;;5011617;28;20066;-86
2021/04/28 06:59:35;;;;;;;10.80;6.18;;;12.00;73.40;;;;;;5026639;28;20026;-88
2021/04/28 07:02:00;;;;;;;10.02;6.00;;;12.10;72.10;;;;;;5002410;28;20026;-85
2021/04/28 07:04:26;;;;;;;14.05;7.13;;;12.30;72.00;;;;;;4996049;28;20049;-86
2021/04/28 07:06:54;;;;;;;15.23;6.90;;;12.30;71.10;;;;;;4995720;28;20033;-86
2021/04/28 07:09:20;;;;;;;12.05;7.03;;;12.50;70.80;;;;;;4994646;28;20049;-86
2021/04/28 07:11:46;;;;;;;14.02;6.95;;;12.60;71.00;;;;;;4997822;28;20041;-84
2021/04/28 07:14:11;;;;;;;14.75;7.30;;;12.70;70.30;;;;;;4994093;28;20119;-85
2021/04/28 07:16:37;;;;;;;14.45;7.00;;;13.00;69.90;;;;;;5008939;28;20181;-87
2021/04/28 07:19:03;;;;;;;11.45;6.65;;;13.10;69.80;;;;;;4994260;28;20676;-86
2021/04/28 07:21:29;;;;;;;12.93;7.00;;;13.30;69.60;;;;;;5010408;28;20593;-86
2021/04/28 07:23:54;;;;;;;13.55;7.60;;;13.30;69.90;;;;;;4987387;28;20132;-86
2021/04/28 07:26:20;;;;;;;14.93;8.00;;;13.40;68.80;;;;;;4993495;28;20096;-87
2021/04/28 07:28:49;;;;;;;14.05;7.40;;;13.50;69.10;;;;;;5015005;28;20045;-86
2021/04/28 07:31:16;;;;;;;15.00;7.32;;;13.70;68.70;;;;;;5012129;28;20022;-86
2021/04/28 07:33:42;;;;;;;13.57;6.95;;;13.80;68.40;;;;;;4991761;28;20038;-86
2021/04/28 07:36:08;;;;;;;13.02;7.35;;;14.00;68.50;;;;;;4993494;28;20268;-87
2021/04/28 07:38:36;;;;;;;19.73;9.18;;;14.10;68.00;;;;;;5014654;28;20017;-86
2021/04/28 07:41:03;;;;;;;12.18;7.57;;;14.20;68.00;;;;;;5013632;28;20456;-86
2021/04/28 07:43:29;;;;;;;11.15;7.03;;;14.40;68.40;;;;;;5016764;28;20113;-87
2021/04/28 07:45:54;;;;;;;13.05;7.55;;;14.40;66.90;;;;;;5001166;28;20061;-85
2021/04/28 07:48:21;;;;;;;14.25;6.97;;;14.60;67.10;;;;;;5016640;23;20014;-84
2021/04/28 07:50:47;;;;;;;14.23;7.30;;;14.70;67.00;;;;;;5005946;28;20049;-85
2021/04/28 07:53:13;;;;;;;15.45;7.53;;;14.90;66.60;;;;;;5013573;28;20026;-83
2021/04/28 07:55:40;;;;;;;13.90;8.02;;;14.90;65.10;;;;;;4993180;28;20067;-84
2021/04/28 07:58:06;;;;;;;13.70;8.35;;;15.10;65.00;;;;;;4993366;28;20041;-84
2021/04/28 08:00:33;;;;;;;13.55;7.53;;;15.10;64.50;;;;;;4972659;28;20035;-85
2021/04/28 08:02:59;;;;;;;14.20;7.30;;;15.30;64.50;;;;;;4979125;28;20037;-84
2021/04/28 08:05:25;;;;;;;15.40;8.00;;;15.30;64.60;;;;;;4978097;28;20044;-84
2021/04/28 08:07:51;;;;;;;12.85;7.85;;;15.30;64.70;;;;;;4976662;28;20055;-85
2021/04/28 08:10:17;;;;;;;14.90;7.90;;;15.50;64.20;;;;;;4995976;28;20054;-85
2021/04/28 08:12:44;;;;;;;15.63;7.55;;;15.70;63.60;;;;;;4993247;28;20084;-86
2021/04/28 08:15:10;;;;;;;13.88;8.07;;;15.70;64.20;;;;;;4995030;28;20490;-85
2021/04/28 08:17:36;;;;;;;13.27;7.38;;;15.80;64.00;;;;;;4977133;28;20057;-86
2021/04/28 08:20:03;;;;;;;13.95;8.20;;;15.90;64.10;;;;;;4977003;28;20029;-85
2021/04/28 08:22:29;;;;;;;16.38;7.70;;;15.90;64.10;;;;;;4979199;28;20062;-85
2021/04/28 08:24:55;;;;;;;11.70;7.45;;;15.90;64.80;;;;;;4980221;28;20026;-85
2021/04/28 08:27:23;;;;;;;22.80;7.78;;;16.10;64.40;;;;;;4981914;28;20014;-86
2021/04/28 08:29:49;;;;;;;16.35;7.68;;;16.20;63.50;;;;;;4984084;28;20038;-84
2021/04/28 08:32:17;;;;;;;13.73;7.60;;;16.20;64.40;;;;;;4976268;28;20018;-85
2021/04/28 08:34:43;;;;;;;14.82;8.18;;;16.40;63.40;;;;;;4976265;28;20030;-86
2021/04/28 08:37:09;;;;;;;12.63;7.90;;;16.30;63.40;;;;;;4979264;28;20037;-86
2021/04/28 08:39:34;;;;;;;14.43;8.98;;;16.50;64.20;;;;;;4979951;28;20058;-87
2021/04/28 08:42:00;;;;;;;19.50;8.43;;;16.80;64.10;;;;;;4980401;28;20062;-85
2021/04/28 08:44:27;;;;;;;14.77;8.18;;;16.90;63.10;;;;;;4980255;28;20037;-84
2021/04/28 08:46:53;;;;;;;17.02;8.50;;;17.10;62.20;;;;;;4998763;28;20029;-86
2021/04/28 08:49:18;;;;;;;17.77;8.32;;;17.20;61.70;;;;;;4977443;28;20034;-84
2021/04/28 08:51:46;;;;;;;16.10;8.30;;;17.20;61.40;;;;;;5001678;28;20062;-84
2021/04/28 08:54:13;;;;;;;15.02;8.85;;;17.30;62.90;;;;;;4971282;28;20023;-85
2021/04/28 08:56:38;;;;;;;15.85;8.48;;;17.40;61.40;;;;;;4973881;28;20035;-83
2021/04/28 08:59:05;;;;;;;15.05;9.20;;;17.70;62.00;;;;;;4987710;28;20037;-84
2021/04/28 09:01:37;;;;;;;15.63;8.70;;;17.90;60.10;;;;;;4979907;28;20073;-86
2021/04/28 09:04:13;;;;;;;16.80;8.52;;;17.90;59.50;;;;;;4992643;28;20053;-85
2021/04/28 09:06:39;;;;;;;14.65;8.65;;;18.30;59.80;;;;;;4984064;28;20037;-86
2021/04/28 09:09:06;;;;;;;15.43;8.98;;;18.30;58.70;;;;;;4982115;28;20023;-86
2021/04/28 09:11:47;;;;;;;15.90;9.00;;;18.00;59.40;;;;;;4996887;28;20026;-87
2021/04/28 09:14:21;;;;;;;15.15;8.85;;;18.10;59.10;;;;;;4984005;28;20018;-86
2021/04/28 09:17:03;;;;;;;15.68;8.27;;;18.30;59.50;;;;;;4981705;28;20030;-86
2021/04/28 09:19:34;;;;;;;17.73;9.20;;;18.50;57.50;;;;;;4984868;28;20117;-86
2021/04/28 09:22:04;;;;;;;15.30;8.85;;;18.40;56.80;;;;;;4996499;28;20022;-87
2021/04/28 09:24:53;;;;;;;17.55;9.20;;;18.70;56.50;;;;;;4997597;28;20030;-86
2021/04/28 09:27:34;;;;;;;16.92;8.25;;;18.70;55.60;;;;;;4982142;28;20684;-86
2021/04/28 09:30:01;;;;;;;16.85;8.90;;;18.70;56.60;;;;;;4981683;28;20053;-86
2021/04/28 09:32:34;;;;;;;17.17;9.07;;;19.00;56.20;;;;;;4978604;28;20030;-84
2021/04/28 09:35:18;;;;;;;16.25;8.80;;;19.10;54.40;;;;;;5000137;28;20910;-84
2021/04/28 09:38:02;;;;;;;15.15;8.73;;;18.80;53.70;;;;;;4978375;28;20113;-85
2021/04/28 09:40:55;;;;;;;19.40;9.00;;;19.10;55.60;;;;;;4988322;28;20105;-84
2021/04/28 09:43:21;;;;;;;19.23;8.90;;;18.90;54.70;;;;;;4997548;28;20014;-84
2021/04/28 09:45:51;;;;;;;16.88;8.82;;;19.20;54.50;;;;;;4996347;28;21478;-83
2021/04/28 09:48:19;;;;;;;14.27;8.48;;;19.40;53.00;;;;;;4999876;28;20022;-83
2021/04/28 09:50:46;;;;;;;14.65;8.68;;;19.50;53.80;;;;;;4981212;28;20256;-85
2021/04/28 09:53:24;;;;;;;14.35;8.52;;;19.60;52.10;;;;;;4977766;28;20033;-84
2021/04/28 09:55:50;;;;;;;12.70;7.60;;;19.50;50.40;;;;;;4999019;28;20034;-84
2021/04/28 09:58:16;;;;;;;13.85;7.75;;;19.60;50.90;;;;;;4993424;28;20117;-84
2021/04/28 10:00:41;;;;;;;11.68;7.22;;;19.80;48.30;;;;;;4995594;28;20072;-84
2021/04/28 10:03:09;;;;;;;12.85;6.55;;;20.00;49.80;;;;;;4982207;28;20019;-86
2021/04/28 10:05:42;;;;;;;15.75;7.30;;;20.10;47.70;;;;;;5000380;28;20027;-87
2021/04/28 10:08:12;;;;;;;13.30;7.22;;;20.40;47.50;;;;;;5000400;28;20022;-85
2021/04/28 10:10:40;;;;;;;12.60;6.72;;;20.50;46.60;;;;;;4997141;28;20018;-84
2021/04/28 10:13:06;;;;;;;14.02;7.15;;;20.70;46.10;;;;;;4995447;28;20092;-85
2021/04/28 10:15:32;;;;;;;11.25;6.25;;;20.60;47.10;;;;;;4996513;28;20029;-84
2021/04/28 10:18:09;;;;;;;11.80;6.05;;;20.80;45.20;;;;;;4996539;28;20104;-84
2021/04/28 10:20:37;;;;;;;11.65;6.28;;;21.10;45.60;;;;;;4996599;28;20041;-85
2021/04/28 10:23:12;;;;;;;13.43;5.97;;;21.20;45.10;;;;;;4987638;28;20053;-84
2021/04/28 10:25:39;;;;;;;14.35;6.03;;;21.40;45.70;;;;;;4986487;28;20026;-85
2021/04/28 10:28:06;;;;;;;10.80;5.85;;;21.70;43.40;;;;;;5002397;28;20113;-85
2021/04/28 10:30:44;;;;;;;11.10;6.55;;;21.70;42.40;;;;;;4999536;28;20022;-84
2021/04/28 10:33:18;;;;;;;10.57;5.88;;;21.40;41.80;;;;;;4995602;28;20027;-85
2021/04/28 10:35:44;;;;;;;13.52;7.00;;;21.10;42.90;;;;;;4980904;28;20080;-85
2021/04/28 10:38:10;;;;;;;10.40;6.15;;;21.10;43.70;;;;;;4991739;28;20661;-85
2021/04/28 10:40:37;;;;;;;11.10;6.15;;;21.40;43.20;;;;;;4996897;28;20042;-84
2021/04/28 10:43:08;;;;;;;11.23;5.78;;;21.50;41.60;;;;;;4978144;28;20041;-84
2021/04/28 10:45:38;;;;;;;;;;;21.70;41.20;;;;;;4994835;28;20034;-84
2021/04/28 10:48:13;;;;;;;11.90;5.97;;;21.90;41.50;;;;;;4993168;28;21022;-85
2021/04/28 10:50:48;;;;;;;10.32;5.20;;;22.30;41.10;;;;;;4981433;28;20038;-84
2021/04/28 10:53:21;;;;;;;11.02;5.78;;;22.50;41.90;;;;;;5004829;28;20026;-86
2021/04/28 10:55:49;;;;;;;10.95;5.57;;;22.80;41.00;;;;;;4980744;28;20106;-84
2021/04/28 10:58:27;;;;;;;10.25;6.00;;;23.00;41.70;;;;;;4983319;28;20386;-86
2021/04/28 11:03:30;;;;;;;10.10;5.53;;;22.50;39.80;;;;;;4999691;28;20031;-85
2021/04/28 11:05:59;;;;;;;12.10;5.10;;;22.30;39.30;;;;;;4992067;28;20022;-84
2021/04/28 11:08:31;;;;;;;8.55;4.50;;;22.50;40.60;;;;;;4993573;28;20026;-85
2021/04/28 11:10:57;;;;;;;8.93;4.57;;;23.10;39.70;;;;;;4990001;28;20022;-88
2021/04/28 11:13:26;;;;;;;10.20;4.93;;;23.30;38.20;;;;;;4973950;28;20704;-85
2021/04/28 11:15:58;;;;;;;10.15;5.20;;;23.40;38.80;;;;;;4975537;28;20030;-84
2021/04/28 11:18:34;;;;;;;7.97;5.05;;;23.40;37.10;;;;;;4977418;28;20022;-85
2021/04/28 11:21:18;;;;;;;11.07;5.13;;;23.20;37.30;;;;;;4986318;28;20023;-84
2021/04/28 11:24:07;;;;;;;7.57;4.60;;;23.00;36.60;;;;;;4977237;28;20045;-84
2021/04/28 11:26:54;;;;;;;8.85;4.85;;;22.80;38.70;;;;;;4977797;28;20023;-84
2021/04/28 11:29:21;;;;;;;10.55;5.13;;;22.20;37.80;;;;;;4978034;28;20121;-85
2021/04/28 11:31:49;;;;;;;9.77;5.00;;;22.50;39.10;;;;;;4999161;28;20095;-86
2021/04/28 11:34:27;;;;;;;8.73;4.95;;;23.00;37.60;;;;;;4992494;28;20034;-84
2021/04/28 11:36:54;;;;;;;8.25;4.70;;;23.70;38.00;;;;;;4981049;28;20026;-84
2021/04/28 11:39:40;;;;;;;7.55;4.47;;;24.20;36.00;;;;;;4983841;28;20023;-86
2021/04/28 11:42:07;;;;;;;7.15;4.50;;;24.50;35.80;;;;;;4990332;28;20085;-84
2021/04/28 11:44:35;;;;;;;7.80;4.25;;;24.50;34.50;;;;;;5005245;28;20065;-87
2021/04/28 11:47:16;;;;;;;6.10;3.60;;;23.20;34.40;;;;;;4998023;28;20014;-85
2021/04/28 11:49:43;;;;;;;10.73;3.30;;;22.70;34.20;;;;;;4971470;28;20029;-86
2021/04/28 11:52:10;;;;;;;5.60;3.20;;;22.70;35.60;;;;;;4990517;28;20030;-84
2021/04/28 11:54:38;;;;;;;7.50;3.22;;;22.50;34.30;;;;;;5005951;28;20134;-86
2021/04/28 11:57:05;;;;;;;7.35;3.63;;;22.20;33.80;;;;;;4987263;28;20122;-85
2021/04/28 11:59:36;;;;;;;7.03;3.63;;;21.80;34.90;;;;;;4980720;28;20483;-87
2021/04/28 12:02:07;;;;;;;6.38;3.30;;;22.30;34.80;;;;;;4977708;28;20104;-86
2021/04/28 12:07:55;;;;;;;;;;;23.20;34.00;;;;;;4997660;28;20513;-85
2021/04/28 12:10:20;;;;;;;5.13;2.95;;;24.00;33.40;;;;;;4982548;28;19910;-86
2021/04/28 12:12:46;;;;;;;7.50;3.05;;;24.10;32.90;;;;;;4984809;28;20034;-85
2021/04/28 12:15:14;;;;;;;7.82;3.10;;;24.50;32.90;;;;;;5002104;28;20030;-85
2021/04/28 12:17:49;;;;;;;5.85;2.65;;;24.70;32.40;;;;;;4987287;28;20030;-85
2021/04/28 12:20:17;;;;;;;7.40;2.42;;;24.10;32.00;;;;;;4996540;28;20483;-86
2021/04/28 12:22:43;;;;;;;7.80;2.92;;;23.80;33.30;;;;;;5002648;28;20042;-86
2021/04/28 12:25:11;;;;;;;5.65;2.92;;;24.50;33.50;;;;;;4987079;28;20022;-86
2021/04/28 12:27:40;;;;;;;4.68;2.63;;;25.00;32.10;;;;;;5003863;28;20034;-86
2021/04/28 12:30:11;;;;;;;3.47;1.80;;;25.40;32.30;;;;;;4998993;28;20026;-85
2021/04/28 12:32:39;;;;;;;5.57;2.28;;;25.50;33.00;;;;;;4999185;28;20151;-86
2021/04/28 12:35:21;;;;;;;9.00;4.35;;;25.90;32.90;;;;;;4979937;28;20093;-87
2021/04/28 12:38:05;;;;;;;14.95;6.63;;;25.90;35.00;;;;;;4981842;28;20491;-84
2021/04/28 12:40:49;;;;;;;10.45;5.68;;;25.70;37.40;;;;;;4979366;28;20085;-85
2021/04/28 12:43:17;;;;;;;14.90;6.57;;;25.60;37.80;;;;;;4987608;28;20453;-85
2021/04/28 12:45:44;;;;;;;11.25;5.85;;;25.50;38.30;;;;;;4998353;28;20030;-83
2021/04/28 12:48:11;;;;;;;14.48;5.68;;;25.70;37.80;;;;;;4975995;28;20022;-83
2021/04/28 12:50:39;;;;;;;10.10;5.55;;;26.10;37.40;;;;;;4974808;28;20124;-85
2021/04/28 12:53:11;;;;;;;10.20;5.30;;;26.10;37.40;;;;;;4972726;28;20046;-85
2021/04/28 12:55:36;;;;;;;;;;;26.00;37.40;;;;;;4973989;28;20030;-85